Time;durP1;ratioP1;P1;durP2;ratioP2;P2;SDS_P1;SDS_P2;PMS_P1;PMS_P2;Temp;Humidity;BMP_temperature;BMP_pressure;BME280_temperature;BME280_humidity;BME280_pressure;Samples;Min_cycle;Max_cycle;Signal;HPM_P1;HPM_P2
2023/02/19 00:01:27;;;;;;;1.88;1.77;;;;;;;;;;5031918;28;20585;-89
2023/02/19 00:03:57;;;;;;;1.50;1.40;;;;;;;;;;5031981;28;20615;-88
2023/02/19 00:06:28;;;;;;;2.58;2.25;;;;;;;;;;5031923;28;20766;-89
2023/02/19 00:08:56;;;;;;;2.20;2.00;;;;;;;;;;5031310;28;20226;-87
2023/02/19 00:11:28;;;;;;;2.03;1.90;;;;;;;;;;5031419;28;20209;-88
2023/02/19 00:13:57;;;;;;;2.00;1.90;;;;;;;;;;5031745;28;20212;-88
2023/02/19 00:16:27;;;;;;;1.70;1.60;;;;;;;;;;5031596;28;20248;-87
2023/02/19 00:18:57;;;;;;;4.57;2.67;;;;;;;;;;5031067;28;20234;-88
2023/02/19 00:21:26;;;;;;;2.83;2.33;;;;;;;;;;5031461;28;20202;-88
2023/02/19 00:23:56;;;;;;;2.33;2.13;;;;;;;;;;5031175;28;20256;-88
2023/02/19 00:26:25;;;;;;;2.55;2.35;;;;;;;;;;5032242;28;20206;-89
2023/02/19 00:28:54;;;;;;;2.42;2.22;;;;;;;;;;5050515;28;20313;-89
2023/02/19 00:31:23;;;;;;;2.22;2.03;;;;;;;;;;5051424;28;20213;-87
2023/02/19 00:33:53;;;;;;;2.05;1.88;;;;;;;;;;5051166;28;20209;-89
2023/02/19 00:36:21;;;;;;;1.80;1.70;;;;;;;;;;5051099;28;20203;-89
2023/02/19 00:38:49;;;;;;;2.25;2.15;;;;;;;;;;5050611;28;20225;-89
2023/02/19 00:41:19;;;;;;;1.77;1.67;;;;;;;;;;5050916;28;20292;-89
2023/02/19 00:43:50;;;;;;;1.80;1.70;;;;;;;;;;5050749;28;20293;-90
2023/02/19 00:46:23;;;;;;;1.80;1.70;;;;;;;;;;5050833;28;20206;-88
2023/02/19 00:48:51;;;;;;;2.40;2.25;;;;;;;;;;5050712;28;20229;-89
2023/02/19 00:51:19;;;;;;;1.98;1.88;;;;;;;;;;5050160;28;20217;-89
2023/02/19 00:53:46;;;;;;;1.45;1.40;;;;;;;;;;5051068;28;20201;-89
2023/02/19 00:56:14;;;;;;;2.28;2.08;;;;;;;;;;5050910;28;20256;-88
2023/02/19 00:58:42;;;;;;;1.90;1.75;;;;;;;;;;5049274;28;20236;-88
2023/02/19 01:01:12;;;;;;;1.52;1.42;;;;;;;;;;5051020;28;20930;-90
2023/02/19 01:03:40;;;;;;;1.70;1.60;;;;;;;;;;5051371;28;20540;-90
2023/02/19 01:06:10;;;;;;;1.92;1.83;;;;;;;;;;5051153;28;20815;-89
2023/02/19 01:08:38;;;;;;;1.70;1.60;;;;;;;;;;5050128;28;20736;-89
2023/02/19 01:11:07;;;;;;;1.52;1.42;;;;;;;;;;5050689;28;20201;-88
2023/02/19 01:13:35;;;;;;;1.70;1.60;;;;;;;;;;5050562;28;20198;-89
2023/02/19 01:16:04;;;;;;;1.80;1.67;;;;;;;;;;5051342;28;20297;-87
2023/02/19 01:18:33;;;;;;;1.60;1.50;;;;;;;;;;5050343;28;20238;-88
2023/02/19 01:21:06;;;;;;;1.38;1.30;;;;;;;;;;5050526;28;20215;-89
2023/02/19 01:23:35;;;;;;;1.65;1.55;;;;;;;;;;5050673;28;20206;-89
2023/02/19 01:26:06;;;;;;;1.05;1.05;;;;;;;;;;5050613;28;20596;-89
2023/02/19 01:28:33;;;;;;;1.20;1.20;;;;;;;;;;5050381;28;20291;-88
2023/02/19 01:31:04;;;;;;;1.45;1.35;;;;;;;;;;5050808;28;20288;-88
2023/02/19 01:33:34;;;;;;;1.30;1.30;;;;;;;;;;5050909;28;20324;-89
2023/02/19 01:36:04;;;;;;;1.42;1.20;;;;;;;;;;5050651;28;20212;-89
2023/02/19 01:38:31;;;;;;;1.27;1.13;;;;;;;;;;5049912;28;20225;-89
2023/02/19 01:41:01;;;;;;;1.10;1.10;;;;;;;;;;5050171;28;20300;-89
2023/02/19 01:43:29;;;;;;;1.50;1.40;;;;;;;;;;5050338;28;20685;-87
2023/02/19 01:45:56;;;;;;;1.30;1.20;;;;;;;;;;5050414;28;20292;-89
2023/02/19 01:48:27;;;;;;;1.50;1.40;;;;;;;;;;5049935;28;20324;-88
2023/02/19 01:50:59;;;;;;;1.10;1.10;;;;;;;;;;5050894;28;20566;-88
2023/02/19 01:53:30;;;;;;;1.17;1.17;;;;;;;;;;5050672;28;20202;-88
2023/02/19 01:55:59;;;;;;;1.05;1.05;;;;;;;;;;5050425;28;20586;-89
2023/02/19 01:58:30;;;;;;;1.13;1.13;;;;;;;;;;5050181;28;20777;-89
2023/02/19 02:00:58;;;;;;;0.90;0.90;;;;;;;;;;5050264;28;20198;-88
2023/02/19 02:03:25;;;;;;;0.85;0.85;;;;;;;;;;5052860;28;20202;-88
2023/02/19 02:06:00;;;;;;;0.80;0.80;;;;;;;;;;5054296;28;20706;-88
2023/02/19 02:11:13;;;;;;;0.93;0.93;;;;;;;;;;5053835;28;20209;-89
2023/02/19 02:13:41;;;;;;;1.00;1.00;;;;;;;;;;5053599;28;20288;-87
2023/02/19 02:16:22;;;;;;;1.10;1.10;;;;;;;;;;5053724;28;20201;-88
2023/02/19 02:18:59;;;;;;;1.13;1.13;;;;;;;;;;5053051;28;20233;-88
2023/02/19 02:21:52;;;;;;;1.10;1.10;;;;;;;;;;5054192;28;20185;-88
2023/02/19 02:25:09;;;;;;;1.50;1.40;;;;;;;;;;5047414;28;20296;-89
2023/02/19 02:27:49;;;;;;;1.05;1.05;;;;;;;;;;5006862;28;20569;-89
2023/02/19 02:30:36;;;;;;;1.42;1.33;;;;;;;;;;5032946;28;20232;-88
2023/02/19 02:33:15;;;;;;;0.70;0.70;;;;;;;;;;5033773;28;20214;-89
2023/02/19 02:35:48;;;;;;;1.00;1.00;;;;;;;;;;5033540;28;20218;-89
2023/02/19 02:38:18;;;;;;;0.90;0.90;;;;;;;;;;5033228;28;20228;-88
2023/02/19 02:40:46;;;;;;;1.20;1.20;;;;;;;;;;5033044;28;20208;-88
2023/02/19 02:43:14;;;;;;;1.40;1.30;;;;;;;;;;5032977;28;20208;-88
2023/02/19 02:45:43;;;;;;;1.38;1.38;;;;;;;;;;5033313;28;20332;-89
2023/02/19 02:48:34;;;;;;;2.03;1.90;;;;;;;;;;5033146;28;20233;-90
2023/02/19 02:51:10;;;;;;;3.53;2.60;;;;;;;;;;5033493;28;20252;-88
2023/02/19 02:56:30;;;;;;;2.20;2.00;;;;;;;;;;5035024;28;20690;-87
2023/02/19 02:58:58;;;;;;;2.75;2.45;;;;;;;;;;5052025;28;20769;-88
2023/02/19 03:04:31;;;;;;;1.65;1.55;;;;;;;;;;5016247;28;20201;-88
2023/02/19 03:07:03;;;;;;;1.35;1.25;;;;;;;;;;5052727;28;20205;-89
2023/02/19 03:09:39;;;;;;;1.83;1.73;;;;;;;;;;5051270;28;20233;-89
2023/02/19 03:20:40;;;;;;;2.03;1.92;;;;;;;;;;5053340;28;20712;-88
2023/02/19 03:23:08;;;;;;;2.50;2.30;;;;;;;;;;5053005;28;20208;-88
2023/02/19 03:29:21;;;;;;;1.95;1.85;;;;;;;;;;5053018;28;20224;-88
2023/02/19 03:31:18;;;;;;;1.10;1.10;;;;;;;;;;5052174;28;20709;-88
2023/02/19 03:33:50;;;;;;;1.20;1.20;;;;;;;;;;5052930;28;20626;-88
2023/02/19 03:36:25;;;;;;;1.58;1.48;;;;;;;;;;5052353;28;20190;-88
2023/02/19 03:38:57;;;;;;;1.10;1.00;;;;;;;;;;5052152;28;20224;-89
2023/02/19 03:41:31;;;;;;;1.10;1.10;;;;;;;;;;5052358;28;20197;-88
2023/02/19 03:44:07;;;;;;;1.20;1.10;;;;;;;;;;5053453;28;20189;-89
2023/02/19 03:46:42;;;;;;;1.90;1.70;;;;;;;;;;5053432;28;20263;-90
2023/02/19 03:49:16;;;;;;;2.40;1.92;;;;;;;;;;5053574;28;20245;-88
2023/02/19 03:51:47;;;;;;;2.67;2.25;;;;;;;;;;5052839;28;20200;-88
2023/02/19 03:54:20;;;;;;;2.08;1.90;;;;;;;;;;5052984;28;20248;-89
2023/02/19 03:56:53;;;;;;;1.60;1.50;;;;;;;;;;5034748;28;20573;-89
2023/02/19 03:59:27;;;;;;;1.30;1.30;;;;;;;;;;5052813;28;20217;-88
2023/02/19 04:01:58;;;;;;;1.55;1.45;;;;;;;;;;5053251;28;20270;-90
2023/02/19 04:04:31;;;;;;;3.13;1.83;;;;;;;;;;5053338;28;20205;-88
2023/02/19 04:07:00;;;;;;;1.48;1.08;;;;;;;;;;5053429;28;20646;-88
2023/02/19 04:09:33;;;;;;;1.13;1.02;;;;;;;;;;5053299;28;20235;-88
2023/02/19 04:12:01;;;;;;;1.00;1.00;;;;;;;;;;5052884;28;20235;-88
2023/02/19 04:14:35;;;;;;;1.30;1.20;;;;;;;;;;5052987;28;20193;-88
2023/02/19 04:17:09;;;;;;;1.30;1.20;;;;;;;;;;5053019;28;20286;-88
2023/02/19 04:19:40;;;;;;;1.10;1.10;;;;;;;;;;5052757;28;20275;-88
2023/02/19 04:22:09;;;;;;;1.20;1.10;;;;;;;;;;5052903;28;20634;-88
2023/02/19 04:24:40;;;;;;;2.17;1.55;;;;;;;;;;5052512;28;20194;-88
2023/02/19 04:27:10;;;;;;;1.50;1.40;;;;;;;;;;5052541;28;20632;-88
2023/02/19 04:29:38;;;;;;;1.60;1.50;;;;;;;;;;5052006;28;20308;-89
2023/02/19 04:32:06;;;;;;;1.40;1.30;;;;;;;;;;5052983;28;20212;-88
2023/02/19 04:34:34;;;;;;;2.03;1.33;;;;;;;;;;5053056;28;20212;-88
2023/02/19 04:37:03;;;;;;;1.83;1.73;;;;;;;;;;5052367;28;20292;-88
2023/02/19 04:39:31;;;;;;;1.40;1.30;;;;;;;;;;5052862;28;20229;-88
2023/02/19 04:41:59;;;;;;;1.13;1.10;;;;;;;;;;5052870;28;20208;-89
2023/02/19 04:44:27;;;;;;;1.98;1.73;;;;;;;;;;5052516;28;20264;-88
2023/02/19 04:46:55;;;;;;;1.40;1.30;;;;;;;;;;5053041;28;20197;-88
2023/02/19 04:49:23;;;;;;;3.45;1.20;;;;;;;;;;5052362;28;20218;-88
2023/02/19 04:51:51;;;;;;;1.00;1.00;;;;;;;;;;5052641;28;20247;-88
2023/02/19 04:54:20;;;;;;;1.70;1.45;;;;;;;;;;5052636;28;20237;-88
2023/02/19 04:56:49;;;;;;;1.30;1.20;;;;;;;;;;5052723;28;20209;-87
2023/02/19 04:59:17;;;;;;;1.48;1.38;;;;;;;;;;5052375;28;20279;-88
2023/02/19 05:01:47;;;;;;;1.45;1.35;;;;;;;;;;5052997;28;20276;-89
2023/02/19 05:04:16;;;;;;;2.00;1.90;;;;;;;;;;5052499;28;20205;-88
2023/02/19 05:06:44;;;;;;;0.93;0.93;;;;;;;;;;5052399;28;20283;-88
2023/02/19 05:09:17;;;;;;;1.40;1.30;;;;;;;;;;5052267;28;20221;-89
2023/02/19 05:11:53;;;;;;;1.40;1.30;;;;;;;;;;5052251;28;20235;-88
2023/02/19 05:14:23;;;;;;;1.77;1.67;;;;;;;;;;5052640;28;20202;-88
2023/02/19 05:16:52;;;;;;;2.05;1.95;;;;;;;;;;5034674;28;20676;-87
2023/02/19 05:19:19;;;;;;;2.10;1.90;;;;;;;;;;5051032;28;20229;-88
2023/02/19 05:21:47;;;;;;;2.33;2.03;;;;;;;;;;5051167;28;20507;-88
2023/02/19 05:24:14;;;;;;;2.42;2.22;;;;;;;;;;5051423;28;20225;-88
2023/02/19 05:26:42;;;;;;;2.45;2.25;;;;;;;;;;5051445;28;20309;-89
2023/02/19 05:29:10;;;;;;;3.15;2.83;;;;;;;;;;5051174;28;20228;-86
2023/02/19 05:31:38;;;;;;;2.58;2.38;;;;;;;;;;5050917;28;20676;-88
2023/02/19 05:34:05;;;;;;;2.50;2.30;;;;;;;;;;5051213;28;20229;-87
2023/02/19 05:36:33;;;;;;;2.85;2.65;;;;;;;;;;5050903;28;20229;-88
2023/02/19 05:39:01;;;;;;;2.65;2.45;;;;;;;;;;5054323;28;20231;-87
2023/02/19 05:41:30;;;;;;;2.97;2.70;;;;;;;;;;5054988;28;20288;-87
2023/02/19 05:43:58;;;;;;;2.70;2.50;;;;;;;;;;5054799;28;20205;-87
2023/02/19 05:46:29;;;;;;;3.03;2.83;;;;;;;;;;5054832;28;20206;-87
2023/02/19 05:48:57;;;;;;;3.42;3.13;;;;;;;;;;5054583;28;20221;-87
2023/02/19 05:51:27;;;;;;;3.20;2.90;;;;;;;;;;5054989;28;20264;-87
2023/02/19 05:53:56;;;;;;;2.80;2.60;;;;;;;;;;5054856;28;20301;-87
2023/02/19 05:56:35;;;;;;;3.03;2.72;;;;;;;;;;5054756;28;20208;-87
2023/02/19 05:59:05;;;;;;;3.05;2.80;;;;;;;;;;5054490;28;20232;-88
2023/02/19 06:01:35;;;;;;;2.88;2.58;;;;;;;;;;5054597;28;20185;-87
2023/02/19 06:04:03;;;;;;;2.45;2.25;;;;;;;;;;5054108;28;20189;-87
2023/02/19 06:06:30;;;;;;;2.70;2.50;;;;;;;;;;5054171;28;20204;-87
2023/02/19 06:08:58;;;;;;;4.22;3.08;;;;;;;;;;5054349;28;20233;-87
2023/02/19 06:11:26;;;;;;;2.25;2.05;;;;;;;;;;5054003;28;20753;-87
2023/02/19 06:13:53;;;;;;;2.55;2.40;;;;;;;;;;5054440;28;20289;-86
2023/02/19 06:16:21;;;;;;;2.83;2.63;;;;;;;;;;5054127;28;20248;-87
2023/02/19 06:18:50;;;;;;;2.28;2.08;;;;;;;;;;5054044;28;20225;-87
2023/02/19 06:21:19;;;;;;;2.47;2.28;;;;;;;;;;5053857;28;20203;-86
2023/02/19 06:23:47;;;;;;;2.45;2.20;;;;;;;;;;5054082;28;20194;-87
2023/02/19 06:26:17;;;;;;;3.78;3.47;;;;;;;;;;5053790;28;20496;-86
2023/02/19 06:28:46;;;;;;;2.42;2.20;;;;;;;;;;5054118;28;20317;-87
2023/02/19 06:31:14;;;;;;;2.63;2.42;;;;;;;;;;5054212;28;20218;-87
2023/02/19 06:33:41;;;;;;;2.28;2.10;;;;;;;;;;5053813;28;20198;-87
2023/02/19 06:36:12;;;;;;;2.15;1.95;;;;;;;;;;5053953;28;20229;-87
2023/02/19 06:38:40;;;;;;;2.10;2.00;;;;;;;;;;5053576;28;20226;-87
2023/02/19 06:41:08;;;;;;;2.90;2.70;;;;;;;;;;5053552;28;20292;-86
2023/02/19 06:43:36;;;;;;;1.70;1.60;;;;;;;;;;5053845;28;20202;-87
2023/02/19 06:46:06;;;;;;;2.10;2.00;;;;;;;;;;5053915;28;20198;-87
2023/02/19 06:48:34;;;;;;;2.42;2.08;;;;;;;;;;5052975;28;20226;-87
2023/02/19 06:51:01;;;;;;;2.45;2.25;;;;;;;;;;5053221;28;20640;-87
2023/02/19 06:53:31;;;;;;;3.03;2.83;;;;;;;;;;5053488;28;20207;-87
2023/02/19 06:56:00;;;;;;;2.97;2.65;;;;;;;;;;5053667;28;20292;-87
2023/02/19 06:58:27;;;;;;;3.15;2.60;;;;;;;;;;5053377;28;20235;-87
2023/02/19 07:00:55;;;;;;;3.03;2.70;;;;;;;;;;5053315;28;20768;-87
2023/02/19 07:03:25;;;;;;;2.35;2.15;;;;;;;;;;5053559;28;20226;-87
2023/02/19 07:05:52;;;;;;;2.90;2.60;;;;;;;;;;5053640;28;20197;-86
2023/02/19 07:08:20;;;;;;;3.15;2.85;;;;;;;;;;5053007;28;20224;-87
2023/02/19 07:10:55;;;;;;;2.42;2.30;;;;;;;;;;5053232;28;20284;-87
2023/02/19 07:13:23;;;;;;;3.60;2.35;;;;;;;;;;5053395;28;20201;-87
2023/02/19 07:15:50;;;;;;;2.25;2.05;;;;;;;;;;5053280;28;20734;-87
2023/02/19 07:18:18;;;;;;;3.00;2.70;;;;;;;;;;5053223;28;20709;-86
2023/02/19 07:20:45;;;;;;;3.08;2.25;;;;;;;;;;5053488;28;20229;-86
2023/02/19 07:23:12;;;;;;;2.60;2.40;;;;;;;;;;5052679;28;20206;-88
2023/02/19 07:25:41;;;;;;;2.03;1.88;;;;;;;;;;5052481;28;20197;-87
2023/02/19 07:28:10;;;;;;;2.30;2.10;;;;;;;;;;5052845;28;20663;-87
2023/02/19 07:30:37;;;;;;;2.95;2.33;;;;;;;;;;5053223;28;20206;-87
2023/02/19 07:33:05;;;;;;;2.95;2.45;;;;;;;;;;5052734;28;20661;-87
2023/02/19 07:35:32;;;;;;;3.03;2.80;;;;;;;;;;5052608;28;20298;-88
2023/02/19 07:38:00;;;;;;;2.50;2.17;;;;;;;;;;5052558;28;20716;-86
2023/02/19 07:40:27;;;;;;;3.10;2.67;;;;;;;;;;5052641;28;20742;-87
2023/02/19 07:42:55;;;;;;;2.25;2.05;;;;;;;;;;5052645;28;20193;-87
2023/02/19 07:45:24;;;;;;;2.85;2.22;;;;;;;;;;5052566;28;20288;-87
2023/02/19 07:47:51;;;;;;;2.50;2.30;;;;;;;;;;5052048;28;20212;-86
2023/02/19 07:50:19;;;;;;;2.33;2.13;;;;;;;;;;5052127;28;20288;-87
2023/02/19 07:52:46;;;;;;;2.10;1.90;;;;;;;;;;5051626;28;20308;-87
2023/02/19 07:55:14;;;;;;;2.10;1.90;;;;;;;;;;5052087;28;20297;-86
2023/02/19 07:57:41;;;;;;;1.65;1.55;;;;;;;;;;5052387;28;20666;-87
2023/02/19 08:00:10;;;;;;;2.72;2.25;;;;;;;;;;5051543;28;20229;-87
2023/02/19 08:05:24;;;;;;;2.92;2.03;;;;;;;;;;5052994;28;20254;-86
2023/02/19 08:07:51;;;;;;;2.45;1.50;;;;;;;;;;5053985;28;20244;-86
2023/02/19 08:13:21;;;;;;;2.55;1.83;;;;;;;;;;5053530;28;20216;-87
2023/02/19 08:15:50;;;;;;;2.25;2.05;;;;;;;;;;5053548;28;20645;-86
2023/02/19 08:18:21;;;;;;;2.83;2.53;;;;;;;;;;5053009;28;20710;-86
2023/02/19 08:20:49;;;;;;;2.17;2.00;;;;;;;;;;5053338;28;20561;-86
2023/02/19 08:23:17;;;;;;;2.25;1.55;;;;;;;;;;5053126;28;20224;-86
2023/02/19 08:25:44;;;;;;;2.38;2.17;;;;;;;;;;5053081;28;20210;-86
2023/02/19 08:28:13;;;;;;;6.38;5.32;;;;;;;;;;5053096;28;20225;-86
2023/02/19 08:30:43;;;;;;;3.47;3.15;;;;;;;;;;5053702;28;20703;-86
2023/02/19 08:33:12;;;;;;;4.13;3.60;;;;;;;;;;5053842;28;20249;-86
2023/02/19 08:35:41;;;;;;;2.90;2.70;;;;;;;;;;5053457;28;20277;-86
2023/02/19 08:38:10;;;;;;;2.75;2.40;;;;;;;;;;5053147;28;20697;-86
2023/02/19 08:40:38;;;;;;;4.32;3.75;;;;;;;;;;5053696;28;20206;-87
2023/02/19 08:43:08;;;;;;;2.58;2.38;;;;;;;;;;5059051;28;20228;-88
2023/02/19 08:45:38;;;;;;;2.83;2.55;;;;;;;;;;5059748;28;20244;-85
2023/02/19 08:48:06;;;;;;;2.70;2.50;;;;;;;;;;5059345;28;20222;-86
2023/02/19 08:50:34;;;;;;;3.30;2.60;;;;;;;;;;5059180;28;20670;-86
2023/02/19 08:53:04;;;;;;;2.45;2.13;;;;;;;;;;5058629;28;20267;-86
2023/02/19 08:55:32;;;;;;;2.60;2.35;;;;;;;;;;5059409;28;20255;-86
2023/02/19 08:58:00;;;;;;;2.20;2.00;;;;;;;;;;5058783;28;20221;-86
2023/02/19 09:00:28;;;;;;;2.25;2.05;;;;;;;;;;5059083;28;20225;-86
2023/02/19 09:02:56;;;;;;;2.22;2.00;;;;;;;;;;5059116;28;20202;-86
2023/02/19 09:05:23;;;;;;;1.73;1.63;;;;;;;;;;5058307;28;20190;-90
2023/02/19 09:07:51;;;;;;;1.05;1.05;;;;;;;;;;5057642;28;20190;-87
2023/02/19 09:10:20;;;;;;;0.90;0.90;;;;;;;;;;5057020;28;20205;-88
2023/02/19 09:12:47;;;;;;;0.80;0.80;;;;;;;;;;5059010;28;20596;-88
2023/02/19 09:15:15;;;;;;;0.77;0.77;;;;;;;;;;5060822;28;20614;-87
2023/02/19 09:17:42;;;;;;;0.80;0.80;;;;;;;;;;5060941;28;20232;-87
2023/02/19 09:20:11;;;;;;;0.80;0.80;;;;;;;;;;5084317;23;20260;-85
2023/02/19 09:22:38;;;;;;;0.70;0.70;;;;;;;;;;5085105;28;20231;-85
2023/02/19 09:25:06;;;;;;;0.80;0.80;;;;;;;;;;5087150;28;20217;-84
2023/02/19 09:27:35;;;;;;;0.63;0.63;;;;;;;;;;5081797;28;20666;-84
2023/02/19 09:30:03;;;;;;;0.70;0.70;;;;;;;;;;5080722;28;20288;-84
2023/02/19 09:32:31;;;;;;;0.93;0.93;;;;;;;;;;5080008;28;20229;-85
2023/02/19 09:34:59;;;;;;;0.50;0.50;;;;;;;;;;5079023;28;20267;-85
2023/02/19 09:37:27;;;;;;;0.70;0.70;;;;;;;;;;5079211;28;20651;-85
2023/02/19 09:39:54;;;;;;;0.85;0.85;;;;;;;;;;5079005;28;20223;-85
2023/02/19 09:42:25;;;;;;;0.70;0.70;;;;;;;;;;5078604;28;20260;-85
2023/02/19 09:44:57;;;;;;;0.77;0.77;;;;;;;;;;5078739;28;20200;-85
2023/02/19 09:47:26;;;;;;;0.70;0.70;;;;;;;;;;5077910;28;20800;-84
2023/02/19 09:49:57;;;;;;;0.60;0.60;;;;;;;;;;5078061;28;20211;-84
2023/02/19 09:52:31;;;;;;;0.80;0.80;;;;;;;;;;5078308;28;20280;-85
2023/02/19 09:55:03;;;;;;;0.70;0.70;;;;;;;;;;5078303;28;20263;-84
2023/02/19 09:57:37;;;;;;;0.82;0.82;;;;;;;;;;5077775;28;20221;-85
2023/02/19 10:00:20;;;;;;;0.70;0.70;;;;;;;;;;5093961;28;20208;-86
2023/02/19 10:02:47;;;;;;;0.60;0.60;;;;;;;;;;5097899;28;20589;-84
2023/02/19 10:05:16;;;;;;;0.50;0.50;;;;;;;;;;5096569;28;20212;-84
2023/02/19 10:07:46;;;;;;;0.50;0.50;;;;;;;;;;5096480;28;20236;-84
2023/02/19 10:10:34;;;;;;;0.80;0.80;;;;;;;;;;5095489;28;20236;-84
2023/02/19 10:13:18;;;;;;;0.63;0.63;;;;;;;;;;5095309;28;20253;-83
2023/02/19 10:15:50;;;;;;;0.60;0.60;;;;;;;;;;5093537;28;20240;-83
2023/02/19 10:18:20;;;;;;;0.80;0.80;;;;;;;;;;5093055;28;20508;-82
2023/02/19 10:20:49;;;;;;;0.60;0.60;;;;;;;;;;5093081;28;20205;-84
2023/02/19 10:23:17;;;;;;;0.63;0.63;;;;;;;;;;5079943;28;20347;-84
2023/02/19 10:25:49;;;;;;;0.80;0.80;;;;;;;;;;5079804;28;20232;-86
2023/02/19 10:28:19;;;;;;;0.68;0.68;;;;;;;;;;5078019;28;20640;-86
2023/02/19 10:30:52;;;;;;;0.80;0.65;;;;;;;;;;5078006;28;20207;-87
2023/02/19 10:33:20;;;;;;;0.60;0.60;;;;;;;;;;5078124;28;20212;-86
2023/02/19 10:35:56;;;;;;;0.57;0.57;;;;;;;;;;5077352;28;20288;-87
2023/02/19 10:38:28;;;;;;;0.50;0.50;;;;;;;;;;5077188;28;20280;-87
2023/02/19 10:41:04;;;;;;;0.65;0.60;;;;;;;;;;5076842;28;20301;-86
2023/02/19 10:43:35;;;;;;;0.80;0.80;;;;;;;;;;5076476;28;20203;-84
2023/02/19 10:46:07;;;;;;;0.70;0.70;;;;;;;;;;5077551;28;20712;-84
2023/02/19 10:48:38;;;;;;;0.88;0.82;;;;;;;;;;5076247;28;20204;-87
2023/02/19 10:51:08;;;;;;;0.50;0.50;;;;;;;;;;5076636;28;20264;-87
2023/02/19 10:53:45;;;;;;;0.60;0.60;;;;;;;;;;5076532;28;20583;-86
2023/02/19 10:56:15;;;;;;;0.60;0.60;;;;;;;;;;5075768;28;20297;-86
2023/02/19 10:58:46;;;;;;;0.65;0.65;;;;;;;;;;5075336;28;20284;-87
2023/02/19 11:01:19;;;;;;;0.50;0.50;;;;;;;;;;5076342;28;20296;-86
2023/02/19 11:03:48;;;;;;;0.60;0.60;;;;;;;;;;5075798;28;20205;-86
2023/02/19 11:06:18;;;;;;;0.55;0.55;;;;;;;;;;5075710;28;20247;-87
2023/02/19 11:08:52;;;;;;;2.47;2.20;;;;;;;;;;5074826;28;20201;-86
2023/02/19 11:11:26;;;;;;;1.05;1.02;;;;;;;;;;5074602;28;20193;-86
2023/02/19 11:13:55;;;;;;;1.10;1.00;;;;;;;;;;5075929;28;20611;-86
2023/02/19 11:16:36;;;;;;;0.95;0.95;;;;;;;;;;5075194;28;20308;-87
2023/02/19 11:19:03;;;;;;;1.23;0.98;;;;;;;;;;5073900;28;20212;-87
2023/02/19 11:21:32;;;;;;;0.98;0.90;;;;;;;;;;5075406;28;20237;-86
2023/02/19 11:24:01;;;;;;;1.20;1.10;;;;;;;;;;5074444;28;20203;-87
2023/02/19 11:26:33;;;;;;;0.75;0.75;;;;;;;;;;5074508;28;20642;-87
2023/02/19 11:29:12;;;;;;;0.70;0.70;;;;;;;;;;5073950;28;20211;-87
2023/02/19 11:31:40;;;;;;;0.88;0.88;;;;;;;;;;5074359;28;20239;-87
2023/02/19 11:34:29;;;;;;;0.60;0.60;;;;;;;;;;5074330;28;20307;-87
2023/02/19 11:37:12;;;;;;;0.60;0.60;;;;;;;;;;5074138;28;20232;-87
2023/02/19 11:39:41;;;;;;;0.40;0.40;;;;;;;;;;5074020;28;20209;-86
2023/02/19 11:42:50;;;;;;;0.40;0.40;;;;;;;;;;5074256;28;20284;-87
2023/02/19 11:45:35;;;;;;;0.50;0.50;;;;;;;;;;5026924;28;20203;-86
2023/02/19 11:48:32;;;;;;;0.57;0.40;;;;;;;;;;5073123;28;20228;-85
2023/02/19 11:51:23;;;;;;;1.00;0.80;;;;;;;;;;5075047;28;20204;-86
2023/02/19 11:54:01;;;;;;;0.40;0.40;;;;;;;;;;5074575;28;20824;-87
2023/02/19 11:56:35;;;;;;;0.70;0.70;;;;;;;;;;5074555;28;20228;-86
2023/02/19 11:59:04;;;;;;;0.73;0.50;;;;;;;;;;5073716;28;20230;-86
2023/02/19 12:02:06;;;;;;;0.60;0.60;;;;;;;;;;5073773;28;20212;-85
2023/02/19 12:05:26;;;;;;;0.60;0.60;;;;;;;;;;5069557;28;20196;-86
2023/02/19 12:08:55;;;;;;;0.85;0.63;;;;;;;;;;5072762;28;20221;-86
2023/02/19 12:11:37;;;;;;;0.60;0.60;;;;;;;;;;5017332;28;20309;-85
2023/02/19 12:14:32;;;;;;;0.75;0.70;;;;;;;;;;5074435;28;20207;-86
2023/02/19 12:17:06;;;;;;;0.70;0.70;;;;;;;;;;5073193;28;20442;-86
2023/02/19 12:19:51;;;;;;;0.40;0.40;;;;;;;;;;5067807;28;20282;-86
2023/02/19 12:22:29;;;;;;;0.50;0.50;;;;;;;;;;5069462;28;20202;-86
2023/02/19 12:25:29;;;;;;;0.55;0.55;;;;;;;;;;5071643;28;20188;-86
2023/02/19 12:28:29;;;;;;;0.63;0.40;;;;;;;;;;5081434;28;20251;-86
2023/02/19 12:31:20;;;;;;;0.57;0.57;;;;;;;;;;5090017;28;20221;-86
2023/02/19 12:34:20;;;;;;;0.63;0.60;;;;;;;;;;5079449;28;20591;-86
2023/02/19 12:36:57;;;;;;;0.43;0.43;;;;;;;;;;5072257;28;20885;-86
2023/02/19 12:39:34;;;;;;;0.60;0.60;;;;;;;;;;5075095;28;20288;-86
2023/02/19 12:42:08;;;;;;;0.60;0.60;;;;;;;;;;5075177;28;20188;-86
2023/02/19 12:44:42;;;;;;;0.43;0.43;;;;;;;;;;5074639;28;20201;-86
2023/02/19 12:47:17;;;;;;;0.70;0.70;;;;;;;;;;5073345;28;20309;-86
2023/02/19 12:49:50;;;;;;;1.38;0.50;;;;;;;;;;5073807;28;20366;-86
2023/02/19 12:52:22;;;;;;;0.60;0.60;;;;;;;;;;5074311;28;20181;-87
2023/02/19 12:54:53;;;;;;;0.30;0.30;;;;;;;;;;5073812;28;20298;-86
2023/02/19 12:57:24;;;;;;;0.32;0.32;;;;;;;;;;5074064;28;20764;-87
2023/02/19 12:59:58;;;;;;;0.63;0.63;;;;;;;;;;5073996;28;20303;-86
2023/02/19 13:02:30;;;;;;;0.40;0.40;;;;;;;;;;5074374;28;20299;-86
2023/02/19 13:05:01;;;;;;;0.52;0.52;;;;;;;;;;5073522;28;20284;-86
2023/02/19 13:07:36;;;;;;;0.50;0.50;;;;;;;;;;5074270;28;20856;-86
2023/02/19 13:10:14;;;;;;;0.40;0.40;;;;;;;;;;5073297;28;20274;-85
2023/02/19 13:12:43;;;;;;;0.50;0.50;;;;;;;;;;5073353;28;20207;-86
2023/02/19 13:15:18;;;;;;;0.30;0.30;;;;;;;;;;5073755;28;20660;-85
2023/02/19 13:17:49;;;;;;;0.40;0.40;;;;;;;;;;5069677;28;20259;-86
2023/02/19 13:20:23;;;;;;;0.40;0.40;;;;;;;;;;5052204;28;20239;-85
2023/02/19 13:26:06;;;;;;;0.50;0.50;;;;;;;;;;5053295;28;20847;-86
2023/02/19 13:28:52;;;;;;;0.68;0.68;;;;;;;;;;5070927;28;20291;-85
2023/02/19 13:31:53;;;;;;;0.80;0.73;;;;;;;;;;5073026;28;20214;-86
2023/02/19 13:34:32;;;;;;;0.50;0.50;;;;;;;;;;5072977;28;20703;-85
2023/02/19 13:37:00;;;;;;;1.00;1.00;;;;;;;;;;5072949;28;20256;-85
2023/02/19 13:39:29;;;;;;;0.90;0.90;;;;;;;;;;5072961;28;20626;-85
2023/02/19 13:41:58;;;;;;;0.85;0.85;;;;;;;;;;5073055;28;20193;-86
2023/02/19 13:44:28;;;;;;;0.80;0.80;;;;;;;;;;5072779;28;20205;-85
2023/02/19 13:46:55;;;;;;;1.02;1.02;;;;;;;;;;5072906;28;20251;-85
2023/02/19 13:49:44;;;;;;;1.00;1.00;;;;;;;;;;5072284;28;20240;-85
2023/02/19 13:52:42;;;;;;;1.40;1.30;;;;;;;;;;5072772;28;20292;-85
2023/02/19 13:55:57;;;;;;;1.20;1.20;;;;;;;;;;5073240;28;20236;-85
2023/02/19 13:58:54;;;;;;;0.82;0.80;;;;;;;;;;5014987;28;20273;-85
2023/02/19 14:02:10;;;;;;;1.17;1.17;;;;;;;;;;5076449;28;20196;-85
2023/02/19 14:04:55;;;;;;;1.08;1.08;;;;;;;;;;5076410;28;20197;-85
2023/02/19 14:07:54;;;;;;;0.90;0.90;;;;;;;;;;5076162;28;20262;-86
2023/02/19 14:11:00;;;;;;;1.25;1.25;;;;;;;;;;5075692;28;20186;-86
2023/02/19 14:14:05;;;;;;;1.25;1.10;;;;;;;;;;4994633;28;20210;-85
2023/02/19 14:17:07;;;;;;;1.08;1.00;;;;;;;;;;4994163;28;20237;-85
2023/02/19 14:19:58;;;;;;;1.50;1.40;;;;;;;;;;5042034;28;20739;-85
2023/02/19 14:23:08;;;;;;;1.02;1.02;;;;;;;;;;5055718;28;20663;-85
2023/02/19 14:25:53;;;;;;;1.05;1.05;;;;;;;;;;5055368;28;20275;-85
2023/02/19 14:28:35;;;;;;;1.10;1.10;;;;;;;;;;5071868;28;20414;-85
2023/02/19 14:31:34;;;;;;;1.05;0.95;;;;;;;;;;5075885;28;20559;-85
2023/02/19 14:34:05;;;;;;;1.33;1.17;;;;;;;;;;5054838;28;20697;-85
2023/02/19 14:36:44;;;;;;;1.00;1.00;;;;;;;;;;5075284;28;20271;-85
2023/02/19 14:39:15;;;;;;;1.80;1.00;;;;;;;;;;5075080;28;20196;-85
2023/02/19 14:41:48;;;;;;;1.20;1.20;;;;;;;;;;5076769;28;20272;-85
2023/02/19 14:44:20;;;;;;;1.20;1.20;;;;;;;;;;5074607;28;20300;-83
2023/02/19 14:46:56;;;;;;;1.05;1.05;;;;;;;;;;5074336;28;20255;-83
2023/02/19 14:49:29;;;;;;;0.80;0.80;;;;;;;;;;5073599;28;20680;-84
2023/02/19 14:52:00;;;;;;;0.85;0.85;;;;;;;;;;5075008;28;20207;-84
2023/02/19 14:54:40;;;;;;;1.10;1.10;;;;;;;;;;5074330;28;20279;-83
2023/02/19 14:57:15;;;;;;;1.30;1.20;;;;;;;;;;5074539;28;20274;-84
2023/02/19 14:59:54;;;;;;;1.35;1.25;;;;;;;;;;5074076;28;20184;-84
2023/02/19 15:02:22;;;;;;;2.03;1.50;;;;;;;;;;5074240;28;20188;-84
2023/02/19 15:04:50;;;;;;;1.27;1.27;;;;;;;;;;5073960;28;20251;-84
2023/02/19 15:07:20;;;;;;;1.50;1.40;;;;;;;;;;5084502;23;20686;-81
2023/02/19 15:09:50;;;;;;;1.30;1.23;;;;;;;;;;5053815;28;20202;-81
2023/02/19 15:12:22;;;;;;;2.30;2.08;;;;;;;;;;5055700;28;20198;-81
2023/02/19 15:14:53;;;;;;;1.33;1.10;;;;;;;;;;5055062;28;20202;-82
2023/02/19 15:17:27;;;;;;;1.52;1.42;;;;;;;;;;5054471;28;20251;-81
2023/02/19 15:19:55;;;;;;;1.23;1.20;;;;;;;;;;5034001;28;20205;-82
2023/02/19 15:22:27;;;;;;;1.05;1.05;;;;;;;;;;5035300;28;20285;-81
2023/02/19 15:24:54;;;;;;;2.50;1.00;;;;;;;;;;5035883;28;20210;-81
2023/02/19 15:27:24;;;;;;;1.30;1.20;;;;;;;;;;5050494;28;20227;-81
2023/02/19 15:29:54;;;;;;;1.13;1.13;;;;;;;;;;5065065;28;20197;-81
2023/02/19 15:32:25;;;;;;;1.27;1.20;;;;;;;;;;5072590;28;20237;-81
2023/02/19 15:34:57;;;;;;;1.40;1.30;;;;;;;;;;5072676;28;20197;-81
2023/02/19 15:37:25;;;;;;;1.00;1.00;;;;;;;;;;5072632;28;20315;-81
2023/02/19 15:39:54;;;;;;;1.13;1.10;;;;;;;;;;5071797;28;20285;-81
2023/02/19 15:42:24;;;;;;;1.00;1.00;;;;;;;;;;5072757;28;20685;-81
2023/02/19 15:44:59;;;;;;;0.70;0.70;;;;;;;;;;5073087;28;20219;-83
2023/02/19 15:47:36;;;;;;;1.25;1.20;;;;;;;;;;5071758;28;20303;-81